createdAt,value
2023-05-23T00:00:17.897Z,5.75
2023-05-23T00:02:47.364Z,4.10
2023-05-23T00:05:18.193Z,4.38
2023-05-23T00:07:47.418Z,4.22
2023-05-23T00:10:16.632Z,4.63
2023-05-23T00:12:48.414Z,4.20
2023-05-23T00:15:17.754Z,3.72
2023-05-23T00:17:47.097Z,5.28
2023-05-23T00:20:17.118Z,3.80
2023-05-23T00:22:48.535Z,4.68
2023-05-23T00:25:17.785Z,3.63
2023-05-23T00:27:48.478Z,4.15
2023-05-23T00:30:17.900Z,4.13
2023-05-23T00:32:47.515Z,3.78
2023-05-23T00:35:17.207Z,3.20
2023-05-23T00:37:46.400Z,3.92
2023-05-23T00:40:15.709Z,3.88
2023-05-23T00:42:44.909Z,3.58
2023-05-23T00:45:16.042Z,3.38
2023-05-23T00:47:46.050Z,3.00
2023-05-23T00:50:17.007Z,3.30
2023-05-23T00:52:48.181Z,3.33
2023-05-23T00:55:17.595Z,3.90
2023-05-23T00:57:47.059Z,3.38
2023-05-23T01:00:20.241Z,3.20
2023-05-23T01:02:51.651Z,3.20
2023-05-23T01:05:22.892Z,3.40
2023-05-23T01:07:53.013Z,3.33
2023-05-23T01:10:24.927Z,3.47
2023-05-23T01:13:12.109Z,4.43
2023-05-23T01:15:48.110Z,3.63
2023-05-23T01:18:22.570Z,3.22
2023-05-23T01:20:57.291Z,3.28
2023-05-23T01:23:42.794Z,2.88
2023-05-23T01:26:26.454Z,3.75
2023-05-23T01:29:06.080Z,3.40
2023-05-23T01:31:38.158Z,3.10
2023-05-23T01:34:08.565Z,3.38
2023-05-23T01:36:43.805Z,2.90
2023-05-23T01:39:13.306Z,2.88
2023-05-23T01:41:42.561Z,3.88
2023-05-23T01:44:13.448Z,2.70
2023-05-23T01:46:44.518Z,2.80
2023-05-23T01:49:15.760Z,3.00
2023-05-23T01:51:45.435Z,3.85
2023-05-23T01:54:17.211Z,3.28
2023-05-23T01:56:46.991Z,2.90
2023-05-23T01:59:17.757Z,3.97
2023-05-23T02:01:47.307Z,2.97
2023-05-23T02:04:16.852Z,2.80
2023-05-23T02:06:46.820Z,3.13
2023-05-23T02:09:16.790Z,2.80
2023-05-23T02:11:47.435Z,2.90
2023-05-23T02:14:18.705Z,3.03
2023-05-23T02:16:48.068Z,3.80
2023-05-23T02:19:17.407Z,3.85
2023-05-23T02:21:48.957Z,2.40
2023-05-23T02:24:18.287Z,2.80
2023-05-23T02:26:47.838Z,3.20
2023-05-23T02:29:18.405Z,2.97
2023-05-23T02:31:48.374Z,3.10
2023-05-23T02:34:17.803Z,2.70
2023-05-23T02:36:47.242Z,4.25
2023-05-23T02:39:16.503Z,2.63
2023-05-23T02:41:46.934Z,3.08
2023-05-23T02:44:19.783Z,2.88
2023-05-23T02:46:49.279Z,2.10
2023-05-23T02:49:18.546Z,3.03
2023-05-23T02:51:47.742Z,3.08
2023-05-23T02:54:17.195Z,2.85
2023-05-23T02:56:47.264Z,2.70
2023-05-23T02:59:18.079Z,3.10
2023-05-23T03:01:47.373Z,2.83
2023-05-23T03:04:16.776Z,2.90
2023-05-23T03:06:46.127Z,3.05
2023-05-23T03:09:18.149Z,3.75
2023-05-23T03:11:47.469Z,3.13
2023-05-23T03:14:18.456Z,3.25
2023-05-23T03:16:47.807Z,4.03
2023-05-23T03:19:17.119Z,2.65
2023-05-23T03:21:46.389Z,2.53
2023-05-23T03:24:15.949Z,2.72
2023-05-23T03:26:46.128Z,2.78
2023-05-23T03:29:15.321Z,2.80
2023-05-23T03:31:47.366Z,2.92
2023-05-23T03:34:16.952Z,2.65
2023-05-23T03:36:46.151Z,3.30
2023-05-23T03:39:15.584Z,2.90
2023-05-23T03:41:44.804Z,2.72
2023-05-23T03:44:14.924Z,2.92
2023-05-23T03:46:44.420Z,2.20
2023-05-23T03:49:15.403Z,2.50
2023-05-23T03:51:44.604Z,3.47
2023-05-23T03:54:18.378Z,2.80
2023-05-23T03:56:47.722Z,3.10
2023-05-23T03:59:17.758Z,3.05
2023-05-23T04:01:47.703Z,2.05
2023-05-23T04:04:21.296Z,2.80
2023-05-23T04:06:51.980Z,2.60
2023-05-23T04:09:21.546Z,3.63
2023-05-23T04:11:52.888Z,4.53
2023-05-23T04:14:22.713Z,2.65
2023-05-23T04:16:52.850Z,3.42
2023-05-23T04:19:23.587Z,2.70
2023-05-23T04:21:54.637Z,2.60
2023-05-23T04:24:23.846Z,2.63
2023-05-23T04:26:56.517Z,2.92
2023-05-23T04:29:26.731Z,5.70
2023-05-23T04:31:57.629Z,3.85
2023-05-23T04:34:28.454Z,2.78
2023-05-23T04:36:57.833Z,4.00
2023-05-23T04:39:27.630Z,3.30
2023-05-23T04:42:24.913Z,3.33
2023-05-23T04:45:20.884Z,6.40
2023-05-23T04:48:17.377Z,4.50
2023-05-23T04:50:51.505Z,4.93
2023-05-23T04:53:21.223Z,4.10
2023-05-23T04:55:50.965Z,3.45
2023-05-23T04:58:20.989Z,3.45
2023-05-23T05:00:51.465Z,3.10
2023-05-23T05:03:21.250Z,4.03
2023-05-23T05:05:52.520Z,5.95
2023-05-23T05:08:22.764Z,3.70
2023-05-23T05:10:52.675Z,4.05
2023-05-23T05:13:25.394Z,5.88
2023-05-23T05:15:57.250Z,4.85
2023-05-23T05:18:28.592Z,4.57
2023-05-23T05:21:01.329Z,3.53
2023-05-23T05:23:33.500Z,4.88
2023-05-23T05:26:03.459Z,4.45
2023-05-23T05:28:32.801Z,3.75
2023-05-23T05:31:05.419Z,4.25
2023-05-23T05:33:37.868Z,4.97
2023-05-23T05:36:16.847Z,6.22
2023-05-23T05:38:47.495Z,3.47
2023-05-23T05:41:18.392Z,5.60
2023-05-23T05:43:51.418Z,3.30
2023-05-23T05:46:20.726Z,4.07
2023-05-23T05:48:49.961Z,4.70
2023-05-23T05:51:22.009Z,6.47
2023-05-23T05:53:51.366Z,8.77
2023-05-23T05:56:22.948Z,6.65
2023-05-23T05:58:52.424Z,5.43
2023-05-23T06:01:21.943Z,5.68
2023-05-23T06:03:51.646Z,4.60
2023-05-23T06:06:23.178Z,6.80
2023-05-23T06:08:53.363Z,6.03
2023-05-23T06:11:22.808Z,6.18
2023-05-23T06:13:52.494Z,5.13
2023-05-23T06:16:21.990Z,13.55
2023-05-23T06:18:52.173Z,3.60
2023-05-23T06:21:24.440Z,7.72
2023-05-23T06:23:54.528Z,3.65
2023-05-23T06:26:24.120Z,4.10
2023-05-23T06:28:54.940Z,4.28
2023-05-23T06:31:24.367Z,3.65
2023-05-23T06:33:54.683Z,3.80
2023-05-23T06:36:25.685Z,4.05
2023-05-23T06:38:55.228Z,5.60
2023-05-23T06:41:25.304Z,4.07
2023-05-23T06:43:55.853Z,5.88
2023-05-23T06:46:27.115Z,4.80
2023-05-23T06:49:10.601Z,3.63
2023-05-23T06:51:46.772Z,4.63
2023-05-23T06:54:16.827Z,3.80
2023-05-23T06:56:46.957Z,3.40
2023-05-23T06:59:17.370Z,4.28
2023-05-23T07:01:47.199Z,4.40
2023-05-23T07:04:17.485Z,3.95
2023-05-23T07:06:49.079Z,3.70
2023-05-23T07:09:18.797Z,4.45
2023-05-23T07:11:48.639Z,3.80
2023-05-23T07:14:18.891Z,6.03
2023-05-23T07:16:48.519Z,3.80
2023-05-23T07:19:19.647Z,3.78
2023-05-23T07:21:54.048Z,3.88
2023-05-23T07:24:25.403Z,4.85
2023-05-23T07:26:57.604Z,4.75
2023-05-23T07:29:28.867Z,5.22
2023-05-23T07:31:59.190Z,3.88
2023-05-23T07:34:29.360Z,4.00
2023-05-23T07:37:03.317Z,3.83
2023-05-23T07:39:40.124Z,3.40
2023-05-23T07:42:09.584Z,3.90
2023-05-23T07:44:39.561Z,3.97
2023-05-23T07:47:08.795Z,4.35
2023-05-23T07:49:37.970Z,4.05
2023-05-23T07:52:09.162Z,3.72
2023-05-23T07:54:38.616Z,5.22
2023-05-23T07:57:09.155Z,3.97
2023-05-23T07:59:38.629Z,4.20
2023-05-23T08:02:08.334Z,4.40
2023-05-23T08:04:37.791Z,4.18
2023-05-23T08:07:09.889Z,4.03
2023-05-23T08:09:49.403Z,4.55
2023-05-23T08:12:21.451Z,3.60
2023-05-23T08:14:54.810Z,3.30
2023-05-23T08:17:32.360Z,3.83
2023-05-23T08:20:02.350Z,4.05
2023-05-23T08:22:34.281Z,3.80
2023-05-23T08:25:04.208Z,3.80
2023-05-23T08:27:36.200Z,3.67
2023-05-23T08:30:13.889Z,3.28
2023-05-23T08:32:43.195Z,3.85
2023-05-23T08:35:12.641Z,3.17
2023-05-23T08:37:46.445Z,2.95
2023-05-23T08:40:19.751Z,3.40
2023-05-23T08:42:53.897Z,3.70
2023-05-23T08:45:23.877Z,3.75
2023-05-23T08:47:53.712Z,3.78
2023-05-23T08:50:25.027Z,4.00
2023-05-23T08:52:58.496Z,3.78
2023-05-23T08:55:29.376Z,3.83
2023-05-23T08:58:00.932Z,3.95
2023-05-23T09:00:53.919Z,3.88
2023-05-23T09:03:24.334Z,4.07
2023-05-23T09:06:03.504Z,4.03
2023-05-23T09:08:34.660Z,6.13
2023-05-23T09:11:06.302Z,4.13
2023-05-23T09:13:40.340Z,4.18
2023-05-23T09:16:12.931Z,4.00
2023-05-23T09:18:48.239Z,4.20
2023-05-23T09:21:19.612Z,5.10
2023-05-23T09:24:00.582Z,4.38
2023-05-23T09:26:30.511Z,4.35
2023-05-23T09:29:00.677Z,4.50
2023-05-23T09:31:30.275Z,4.50
2023-05-23T09:34:00.532Z,4.20
2023-05-23T09:36:33.853Z,4.10
2023-05-23T09:39:06.865Z,4.47
2023-05-23T09:41:36.334Z,4.78
2023-05-23T09:44:09.400Z,4.18
2023-05-23T09:46:39.580Z,4.22
2023-05-23T09:49:19.582Z,3.90
2023-05-23T09:51:59.608Z,4.80
2023-05-23T09:54:30.417Z,4.15
2023-05-23T09:57:04.202Z,4.75
2023-05-23T09:59:36.383Z,5.13
2023-05-23T10:02:08.930Z,4.95
2023-05-23T10:04:40.753Z,4.25
2023-05-23T10:07:18.404Z,4.38
2023-05-23T10:09:58.787Z,4.57
2023-05-23T10:12:48.893Z,5.05
2023-05-23T10:15:19.986Z,4.90
2023-05-23T10:18:09.172Z,4.78
2023-05-23T10:20:43.679Z,5.32
2023-05-23T10:23:14.083Z,4.80
2023-05-23T10:25:45.756Z,5.07
2023-05-23T10:28:16.385Z,4.95
2023-05-23T10:30:46.886Z,4.65
2023-05-23T10:33:17.390Z,4.85
2023-05-23T10:35:55.103Z,4.40
2023-05-23T10:38:34.388Z,4.65
2023-05-23T10:41:12.237Z,4.88
2023-05-23T10:43:50.323Z,4.90
2023-05-23T10:46:22.543Z,5.00
2023-05-23T10:48:57.942Z,4.90
2023-05-23T10:51:27.168Z,5.40
2023-05-23T10:53:56.824Z,4.55
2023-05-23T10:56:27.508Z,4.72
2023-05-23T10:58:58.675Z,5.32
2023-05-23T11:01:28.952Z,5.30
2023-05-23T11:03:58.474Z,5.30
2023-05-23T11:06:33.692Z,5.45
2023-05-23T11:09:07.790Z,5.35
2023-05-23T11:12:06.242Z,5.75
2023-05-23T11:14:55.591Z,5.53
2023-05-23T11:17:50.785Z,5.60
2023-05-23T11:20:23.678Z,5.63
2023-05-23T11:22:56.871Z,6.35
2023-05-23T11:25:42.322Z,5.55
2023-05-23T11:28:14.539Z,6.18
2023-05-23T11:30:43.888Z,6.32
2023-05-23T11:33:15.137Z,5.95
2023-05-23T11:35:45.187Z,6.00
2023-05-23T11:38:15.907Z,5.45
2023-05-23T11:40:47.317Z,5.43
2023-05-23T11:43:19.885Z,5.72
2023-05-23T11:45:49.315Z,5.35
2023-05-23T11:48:19.029Z,4.75
2023-05-23T11:50:51.031Z,5.72
2023-05-23T11:53:22.273Z,6.00
2023-05-23T11:55:53.419Z,5.97
2023-05-23T11:58:28.125Z,6.25
2023-05-23T12:01:01.437Z,6.18
2023-05-23T12:03:30.985Z,6.60
2023-05-23T12:06:01.058Z,6.60
2023-05-23T12:08:30.337Z,6.03
2023-05-23T12:11:00.811Z,6.35
2023-05-23T12:13:31.875Z,6.63
2023-05-23T12:16:03.139Z,6.70
2023-05-23T12:18:36.205Z,7.00
2023-05-23T12:21:08.678Z,6.55
2023-05-23T12:23:38.517Z,6.65
2023-05-23T12:26:10.247Z,6.72
2023-05-23T12:28:43.189Z,6.43
2023-05-23T12:31:13.573Z,6.53
2023-05-23T12:33:44.222Z,7.05
2023-05-23T12:36:13.729Z,6.22
2023-05-23T12:38:46.443Z,7.00
2023-05-23T12:41:19.931Z,7.07
2023-05-23T12:43:55.117Z,6.97
2023-05-23T12:46:26.750Z,6.82
2023-05-23T12:48:56.578Z,6.80
2023-05-23T12:51:25.705Z,6.97
2023-05-23T12:53:56.791Z,7.05
2023-05-23T12:56:26.208Z,7.85
2023-05-23T12:58:57.257Z,7.40
2023-05-23T13:01:26.536Z,7.40
2023-05-23T13:03:55.830Z,7.30
2023-05-23T13:06:24.945Z,7.88
2023-05-23T13:08:55.145Z,8.27
2023-05-23T13:11:24.472Z,7.78
2023-05-23T13:13:54.170Z,7.13
2023-05-23T13:16:24.965Z,7.78
2023-05-23T13:18:54.367Z,7.10
2023-05-23T13:21:24.177Z,7.30
2023-05-23T13:23:53.384Z,7.72
2023-05-23T13:26:23.251Z,8.23
2023-05-23T13:28:52.703Z,8.90
2023-05-23T13:31:21.999Z,7.50
2023-05-23T13:33:52.837Z,7.70
2023-05-23T13:36:22.073Z,8.38
2023-05-23T13:38:51.239Z,8.57
2023-05-23T13:41:20.464Z,8.00
2023-05-23T13:43:49.820Z,8.25
2023-05-23T13:46:19.146Z,8.15
2023-05-23T13:48:48.355Z,7.95
2023-05-23T13:51:19.018Z,7.60
2023-05-23T13:53:48.291Z,8.85
2023-05-23T13:56:18.223Z,7.65
2023-05-23T13:58:47.784Z,7.88
2023-05-23T14:01:17.502Z,8.20
2023-05-23T14:03:46.794Z,8.65
2023-05-23T14:06:16.017Z,8.38
2023-05-23T14:08:46.614Z,8.77
2023-05-23T14:11:15.916Z,8.15
2023-05-23T14:13:45.144Z,8.73
2023-05-23T14:16:14.466Z,8.15
2023-05-23T14:18:43.948Z,8.65
2023-05-23T14:21:13.164Z,8.57
2023-05-23T14:23:42.666Z,8.50
2023-05-23T14:26:13.246Z,9.40
2023-05-23T14:28:42.607Z,8.20
2023-05-23T14:31:11.886Z,9.52
2023-05-23T14:33:41.145Z,8.85
2023-05-23T14:36:10.622Z,8.65
2023-05-23T14:38:39.941Z,8.85
2023-05-23T14:41:09.096Z,9.10
2023-05-23T14:43:39.865Z,9.35
2023-05-23T14:46:09.270Z,9.00
2023-05-23T14:48:38.697Z,9.02
2023-05-23T14:51:07.858Z,9.02
2023-05-23T14:53:37.641Z,9.38
2023-05-23T14:56:07.137Z,9.30
2023-05-23T14:58:36.287Z,9.43
2023-05-23T15:01:07.051Z,9.23
2023-05-23T15:03:36.291Z,9.27
2023-05-23T15:06:06.766Z,9.20
2023-05-23T15:08:36.258Z,9.55
2023-05-23T15:11:05.645Z,9.30
2023-05-23T15:13:35.158Z,11.07
2023-05-23T15:16:04.627Z,11.13
2023-05-23T15:18:41.312Z,12.85
2023-05-23T15:21:12.468Z,8.88
2023-05-23T15:23:41.832Z,9.95
2023-05-23T15:26:11.250Z,9.57
2023-05-23T15:28:40.424Z,9.73
2023-05-23T15:31:09.738Z,10.13
2023-05-23T15:33:40.430Z,9.60
2023-05-23T15:36:10.277Z,10.20
2023-05-23T15:38:39.484Z,10.60
2023-05-23T15:41:08.751Z,9.55
2023-05-23T15:43:37.975Z,10.25
2023-05-23T15:46:07.499Z,14.18
2023-05-23T15:48:36.787Z,12.10
2023-05-23T15:51:07.689Z,13.60
2023-05-23T15:53:47.795Z,13.75
2023-05-23T15:56:26.363Z,14.18
2023-05-23T15:58:55.619Z,14.05
2023-05-23T16:01:24.945Z,14.00
2023-05-23T16:03:54.375Z,15.73
2023-05-23T16:06:25.510Z,17.25
2023-05-23T16:08:54.825Z,18.95
2023-05-23T16:11:24.502Z,16.42
2023-05-23T16:13:53.765Z,15.57
2023-05-23T16:16:23.529Z,16.40
2023-05-23T16:18:53.567Z,15.55
2023-05-23T16:21:24.413Z,15.50
2023-05-23T16:23:54.742Z,14.90
2023-05-23T16:26:24.040Z,17.08
2023-05-23T16:28:54.023Z,14.48
2023-05-23T16:31:28.400Z,15.45
2023-05-23T16:33:58.776Z,15.45
2023-05-23T16:36:29.849Z,19.20
2023-05-23T16:38:59.098Z,16.27
2023-05-23T16:41:28.336Z,18.33
2023-05-23T16:43:57.742Z,16.42
2023-05-23T16:46:27.124Z,18.90
2023-05-23T16:48:56.441Z,18.75
2023-05-23T16:51:25.712Z,17.17
2023-05-23T16:53:56.486Z,15.68
2023-05-23T16:56:26.382Z,18.30
2023-05-23T16:58:55.697Z,19.15
2023-05-23T17:01:25.001Z,16.75
2023-05-23T17:03:54.689Z,16.50
2023-05-23T17:06:24.090Z,16.27
2023-05-23T17:08:53.451Z,16.55
2023-05-23T17:11:25.471Z,15.77
2023-05-23T17:13:54.875Z,17.00
2023-05-23T17:16:24.166Z,16.23
2023-05-23T17:18:53.466Z,17.80
2023-05-23T17:21:22.732Z,16.45
2023-05-23T17:23:52.001Z,17.20
2023-05-23T17:26:21.259Z,16.23
2023-05-23T17:28:52.086Z,16.38
2023-05-23T17:31:21.587Z,16.35
2023-05-23T17:33:50.932Z,16.85
2023-05-23T17:36:20.182Z,18.33
2023-05-23T17:38:49.376Z,17.08
2023-05-23T17:41:18.561Z,17.48
2023-05-23T17:43:47.922Z,16.27
2023-05-23T17:46:18.643Z,16.98
2023-05-23T17:48:48.335Z,17.92
2023-05-23T17:51:17.720Z,16.83
2023-05-23T17:53:46.927Z,15.82
2023-05-23T17:56:16.781Z,16.55
2023-05-23T17:58:46.198Z,15.98
2023-05-23T18:01:15.420Z,17.17
2023-05-23T18:03:46.117Z,16.17
2023-05-23T18:06:15.424Z,17.00
2023-05-23T18:08:44.699Z,16.20
2023-05-23T18:11:14.253Z,16.35
2023-05-23T18:13:44.489Z,17.60
2023-05-23T18:16:13.669Z,15.50
2023-05-23T18:18:42.807Z,15.35
2023-05-23T18:21:13.424Z,15.40
2023-05-23T18:23:43.421Z,17.15
2023-05-23T18:26:12.633Z,14.82
2023-05-23T18:28:41.915Z,16.10
2023-05-23T18:31:11.371Z,17.90
2023-05-23T18:33:40.701Z,17.42
2023-05-23T18:36:10.199Z,17.20
2023-05-23T18:38:41.786Z,28.25
2023-05-23T18:41:14.759Z,17.40
2023-05-23T18:43:44.194Z,16.42
2023-05-23T18:46:13.506Z,14.02
2023-05-23T18:48:43.890Z,17.25
2023-05-23T18:51:13.555Z,17.83
2023-05-23T18:53:44.600Z,16.73
2023-05-23T18:56:13.867Z,14.60
2023-05-23T18:58:44.164Z,16.55
2023-05-23T19:01:15.371Z,15.73
2023-05-23T19:03:45.983Z,15.82
2023-05-23T19:06:15.514Z,17.50
2023-05-23T19:08:46.208Z,15.48
2023-05-23T19:11:15.598Z,14.70
2023-05-23T19:13:45.035Z,18.38
2023-05-23T19:16:14.329Z,16.30
2023-05-23T19:18:43.575Z,15.88
2023-05-23T19:21:13.015Z,14.18
2023-05-23T19:23:42.230Z,15.73
2023-05-23T19:26:13.814Z,13.30
2023-05-23T19:28:43.389Z,13.60
2023-05-23T19:31:12.805Z,16.00
2023-05-23T19:33:42.308Z,15.38
2023-05-23T19:36:11.726Z,14.90
2023-05-23T19:38:41.037Z,15.45
2023-05-23T19:41:11.522Z,14.45
2023-05-23T19:43:42.417Z,14.38
2023-05-23T19:46:11.702Z,14.77
2023-05-23T19:48:40.995Z,14.93
2023-05-23T19:51:12.599Z,14.50
2023-05-23T19:53:43.329Z,14.50
2023-05-23T19:56:13.555Z,13.88
2023-05-23T19:58:44.336Z,13.15
2023-05-23T20:01:13.657Z,13.30
2023-05-23T20:03:43.176Z,14.07
2023-05-23T20:06:13.135Z,11.82
2023-05-23T20:08:42.636Z,13.27
2023-05-23T20:11:12.755Z,14.32
2023-05-23T20:13:43.813Z,11.18
2023-05-23T20:16:13.348Z,11.98
2023-05-23T20:18:43.800Z,12.80
2023-05-23T20:21:13.114Z,12.40
2023-05-23T20:23:45.192Z,10.95
2023-05-23T20:26:14.737Z,12.20
2023-05-23T20:28:45.409Z,12.32
2023-05-23T20:31:14.866Z,12.60
2023-05-23T20:33:44.403Z,11.88
2023-05-23T20:36:13.920Z,11.35
2023-05-23T20:38:43.216Z,10.38
2023-05-23T20:41:14.305Z,11.68
2023-05-23T20:43:46.564Z,11.32
2023-05-23T20:46:15.870Z,12.52
2023-05-23T20:48:45.082Z,12.15
2023-05-23T20:51:15.026Z,12.90
2023-05-23T20:53:44.911Z,12.52
2023-05-23T20:56:14.369Z,10.93
2023-05-23T20:58:46.021Z,12.20
2023-05-23T21:01:15.822Z,12.45
2023-05-23T21:03:45.032Z,12.57
2023-05-23T21:06:14.314Z,12.38
2023-05-23T21:08:43.586Z,12.90
2023-05-23T21:11:12.829Z,11.13
2023-05-23T21:13:42.027Z,10.93
2023-05-23T21:16:14.808Z,11.65
2023-05-23T21:18:44.232Z,12.30
2023-05-23T21:21:13.345Z,11.63
2023-05-23T21:23:42.878Z,11.57
2023-05-23T21:26:12.068Z,11.52
2023-05-23T21:28:41.320Z,11.73
2023-05-23T21:31:12.985Z,12.07
2023-05-23T21:33:42.453Z,11.13
2023-05-23T21:36:11.603Z,11.70
2023-05-23T21:38:40.748Z,12.38
2023-05-23T21:41:09.950Z,11.95
2023-05-23T21:43:39.203Z,12.70
2023-05-23T21:46:08.427Z,12.85
2023-05-23T21:48:38.981Z,12.60
2023-05-23T21:51:08.335Z,13.55
2023-05-23T21:53:37.576Z,12.93
2023-05-23T21:56:07.305Z,12.90
2023-05-23T21:58:36.597Z,12.90
2023-05-23T22:01:06.174Z,13.02
2023-05-23T22:03:35.837Z,12.05
2023-05-23T22:06:07.307Z,13.80
2023-05-23T22:08:36.606Z,11.25
2023-05-23T22:11:06.109Z,12.98
2023-05-23T22:13:36.038Z,12.57
2023-05-23T22:16:05.897Z,11.85
2023-05-23T22:18:51.092Z,12.88
2023-05-23T22:21:22.852Z,12.93
2023-05-23T22:23:52.562Z,12.20
2023-05-23T22:26:22.067Z,12.60
2023-05-23T22:28:51.905Z,12.88
2023-05-23T22:31:21.652Z,12.45
2023-05-23T22:33:51.459Z,11.68
2023-05-23T22:36:23.495Z,12.30
2023-05-23T22:38:52.838Z,12.43
2023-05-23T22:41:22.418Z,11.55
2023-05-23T22:43:52.216Z,13.10
2023-05-23T22:46:21.671Z,11.90
2023-05-23T22:48:52.726Z,10.73
2023-05-23T22:51:23.443Z,11.43
2023-05-23T22:53:52.950Z,10.25
2023-05-23T22:56:22.191Z,10.20
2023-05-23T22:58:51.530Z,10.82
2023-05-23T23:01:20.786Z,10.60
2023-05-23T23:03:50.126Z,10.77
2023-05-23T23:06:21.109Z,10.35
2023-05-23T23:08:52.182Z,10.80
2023-05-23T23:11:22.094Z,10.23
2023-05-23T23:13:51.340Z,10.38
2023-05-23T23:16:21.285Z,10.35
2023-05-23T23:18:50.531Z,9.85
2023-05-23T23:21:19.737Z,10.32
2023-05-23T23:23:50.467Z,9.40
2023-05-23T23:26:19.709Z,9.68
2023-05-23T23:28:48.980Z,9.63
2023-05-23T23:31:18.186Z,9.43
2023-05-23T23:33:48.047Z,9.93
2023-05-23T23:36:18.179Z,10.10
2023-05-23T23:38:47.323Z,9.85
2023-05-23T23:41:18.000Z,11.38
2023-05-23T23:43:47.329Z,9.68
2023-05-23T23:46:16.829Z,9.00
2023-05-23T23:48:46.050Z,8.30
2023-05-23T23:51:15.476Z,9.77
2023-05-23T23:53:47.210Z,9.80
2023-05-23T23:56:19.075Z,8.07
2023-05-23T23:58:48.406Z,9.27
